sensor_id;sensor_type;location;lat;lon;timestamp;temperature;humidity
53520;DHT22;39397;53.204;5.778;2023-04-15T00:00:37;6.90;99.90
53520;DHT22;39397;53.204;5.778;2023-04-15T00:03:03;6.90;99.90
53520;DHT22;39397;53.204;5.778;2023-04-15T00:05:30;7.00;99.90
53520;DHT22;39397;53.204;5.778;2023-04-15T00:07:56;8.40;99.90
53520;DHT22;39397;53.204;5.778;2023-04-15T00:10:24;6.90;99.90
53520;DHT22;39397;53.204;5.778;2023-04-15T00:12:50;7.70;99.90
53520;DHT22;39397;53.204;5.778;2023-04-15T00:15:16;6.90;99.90
53520;DHT22;39397;53.204;5.778;2023-04-15T00:17:42;6.80;99.90
53520;DHT22;39397;53.204;5.778;2023-04-15T00:20:08;6.80;99.90
53520;DHT22;39397;53.204;5.778;2023-04-15T00:22:34;6.80;99.90
53520;DHT22;39397;53.204;5.778;2023-04-15T00:25:01;6.90;99.90
53520;DHT22;39397;53.204;5.778;2023-04-15T00:27:26;7.60;99.90
53520;DHT22;39397;53.204;5.778;2023-04-15T00:29:52;6.80;99.90
53520;DHT22;39397;53.204;5.778;2023-04-15T00:32:18;8.00;99.90
53520;DHT22;39397;53.204;5.778;2023-04-15T00:34:44;7.70;99.90
53520;DHT22;39397;53.204;5.778;2023-04-15T00:37:10;6.70;99.90
53520;DHT22;39397;53.204;5.778;2023-04-15T00:39:37;6.70;99.90
53520;DHT22;39397;53.204;5.778;2023-04-15T00:42:06;7.90;99.90
53520;DHT22;39397;53.204;5.778;2023-04-15T00:44:32;6.60;99.90
53520;DHT22;39397;53.204;5.778;2023-04-15T00:46:59;6.40;99.90
53520;DHT22;39397;53.204;5.778;2023-04-15T00:49:25;6.50;99.90
53520;DHT22;39397;53.204;5.778;2023-04-15T00:51:52;6.50;99.90
53520;DHT22;39397;53.204;5.778;2023-04-15T00:54:18;6.90;99.90
53520;DHT22;39397;53.204;5.778;2023-04-15T00:56:43;6.50;99.90
53520;DHT22;39397;53.204;5.778;2023-04-15T00:59:09;6.40;99.90
53520;DHT22;39397;53.204;5.778;2023-04-15T01:01:35;7.10;99.90
53520;DHT22;39397;53.204;5.778;2023-04-15T01:04:02;6.60;99.90
53520;DHT22;39397;53.204;5.778;2023-04-15T01:06:28;6.80;99.90
53520;DHT22;39397;53.204;5.778;2023-04-15T01:08:54;6.30;99.90
53520;DHT22;39397;53.204;5.778;2023-04-15T01:11:20;6.20;99.90
53520;DHT22;39397;53.204;5.778;2023-04-15T01:13:49;6.10;99.90
53520;DHT22;39397;53.204;5.778;2023-04-15T01:16:15;6.20;99.90
53520;DHT22;39397;53.204;5.778;2023-04-15T01:18:41;6.00;99.90
53520;DHT22;39397;53.204;5.778;2023-04-15T01:21:07;6.30;99.90
53520;DHT22;39397;53.204;5.778;2023-04-15T01:23:35;6.60;99.90
53520;DHT22;39397;53.204;5.778;2023-04-15T01:26:05;6.20;99.90
53520;DHT22;39397;53.204;5.778;2023-04-15T01:28:32;6.10;99.90
53520;DHT22;39397;53.204;5.778;2023-04-15T01:31:24;5.90;99.90
53520;DHT22;39397;53.204;5.778;2023-04-15T01:33:50;6.30;99.90
53520;DHT22;39397;53.204;5.778;2023-04-15T01:36:16;5.80;99.90
53520;DHT22;39397;53.204;5.778;2023-04-15T01:38:42;5.80;99.90
53520;DHT22;39397;53.204;5.778;2023-04-15T01:41:07;6.10;99.90
53520;DHT22;39397;53.204;5.778;2023-04-15T01:43:34;7.00;99.90
53520;DHT22;39397;53.204;5.778;2023-04-15T01:46:01;6.90;99.90
53520;DHT22;39397;53.204;5.778;2023-04-15T01:48:27;6.40;99.90
53520;DHT22;39397;53.204;5.778;2023-04-15T01:50:54;5.70;99.90
53520;DHT22;39397;53.204;5.778;2023-04-15T01:53:21;6.30;99.90
53520;DHT22;39397;53.204;5.778;2023-04-15T01:55:47;6.00;99.90
53520;DHT22;39397;53.204;5.778;2023-04-15T01:58:12;6.60;99.90
53520;DHT22;39397;53.204;5.778;2023-04-15T02:00:39;6.60;99.90
53520;DHT22;39397;53.204;5.778;2023-04-15T02:03:05;5.60;99.90
53520;DHT22;39397;53.204;5.778;2023-04-15T02:05:31;5.60;99.90
53520;DHT22;39397;53.204;5.778;2023-04-15T02:07:57;5.70;99.90
53520;DHT22;39397;53.204;5.778;2023-04-15T02:10:22;6.30;99.90
53520;DHT22;39397;53.204;5.778;2023-04-15T02:12:48;5.60;99.90
53520;DHT22;39397;53.204;5.778;2023-04-15T02:15:14;6.40;99.90
53520;DHT22;39397;53.204;5.778;2023-04-15T02:17:39;5.60;99.90
53520;DHT22;39397;53.204;5.778;2023-04-15T02:20:07;5.60;99.90
53520;DHT22;39397;53.204;5.778;2023-04-15T02:22:35;5.70;99.90
53520;DHT22;39397;53.204;5.778;2023-04-15T02:25:01;5.60;99.90
53520;DHT22;39397;53.204;5.778;2023-04-15T02:27:27;6.00;99.90
53520;DHT22;39397;53.204;5.778;2023-04-15T02:29:53;5.20;99.90
53520;DHT22;39397;53.204;5.778;2023-04-15T02:32:19;5.50;99.90
53520;DHT22;39397;53.204;5.778;2023-04-15T02:34:46;6.40;99.90
53520;DHT22;39397;53.204;5.778;2023-04-15T02:37:12;5.60;99.90
53520;DHT22;39397;53.204;5.778;2023-04-15T02:39:38;5.40;99.90
53520;DHT22;39397;53.204;5.778;2023-04-15T02:42:04;6.00;99.90
53520;DHT22;39397;53.204;5.778;2023-04-15T02:44:31;5.60;99.90
53520;DHT22;39397;53.204;5.778;2023-04-15T02:46:57;5.70;99.90
53520;DHT22;39397;53.204;5.778;2023-04-15T02:49:24;5.90;99.90
53520;DHT22;39397;53.204;5.778;2023-04-15T02:51:50;6.00;99.90
53520;DHT22;39397;53.204;5.778;2023-04-15T02:54:16;6.60;99.90
53520;DHT22;39397;53.204;5.778;2023-04-15T02:56:42;6.70;99.90
53520;DHT22;39397;53.204;5.778;2023-04-15T02:59:08;6.20;99.90
53520;DHT22;39397;53.204;5.778;2023-04-15T03:01:34;6.40;99.90
53520;DHT22;39397;53.204;5.778;2023-04-15T03:03:59;6.50;99.90
53520;DHT22;39397;53.204;5.778;2023-04-15T03:06:25;6.20;99.90
53520;DHT22;39397;53.204;5.778;2023-04-15T03:08:51;6.00;99.90
53520;DHT22;39397;53.204;5.778;2023-04-15T03:11:18;5.40;99.90
53520;DHT22;39397;53.204;5.778;2023-04-15T03:13:43;5.90;99.90
53520;DHT22;39397;53.204;5.778;2023-04-15T03:16:09;5.40;99.90
53520;DHT22;39397;53.204;5.778;2023-04-15T03:18:35;5.40;99.90
53520;DHT22;39397;53.204;5.778;2023-04-15T03:21:01;5.30;99.90
53520;DHT22;39397;53.204;5.778;2023-04-15T03:23:27;5.20;99.90
53520;DHT22;39397;53.204;5.778;2023-04-15T03:25:53;6.80;99.90
53520;DHT22;39397;53.204;5.778;2023-04-15T03:28:22;6.20;99.90
53520;DHT22;39397;53.204;5.778;2023-04-15T03:30:48;5.10;99.90
53520;DHT22;39397;53.204;5.778;2023-04-15T03:33:13;5.10;99.90
53520;DHT22;39397;53.204;5.778;2023-04-15T03:35:39;6.40;99.90
53520;DHT22;39397;53.204;5.778;2023-04-15T03:38:05;5.20;99.90
53520;DHT22;39397;53.204;5.778;2023-04-15T03:40:30;5.00;99.90
53520;DHT22;39397;53.204;5.778;2023-04-15T03:42:56;5.10;99.90
53520;DHT22;39397;53.204;5.778;2023-04-15T03:45:22;5.30;99.90
53520;DHT22;39397;53.204;5.778;2023-04-15T03:47:47;6.50;99.90
53520;DHT22;39397;53.204;5.778;2023-04-15T03:50:14;6.00;99.90
53520;DHT22;39397;53.204;5.778;2023-04-15T03:52:40;5.20;99.90
53520;DHT22;39397;53.204;5.778;2023-04-15T03:55:06;6.30;99.90
53520;DHT22;39397;53.204;5.778;2023-04-15T03:57:33;5.00;99.90
53520;DHT22;39397;53.204;5.778;2023-04-15T04:00:06;5.80;99.90
53520;DHT22;39397;53.204;5.778;2023-04-15T04:02:31;5.00;99.90
53520;DHT22;39397;53.204;5.778;2023-04-15T04:04:57;6.60;99.90
53520;DHT22;39397;53.204;5.778;2023-04-15T04:07:23;6.40;99.90
53520;DHT22;39397;53.204;5.778;2023-04-15T04:09:49;6.10;99.90
53520;DHT22;39397;53.204;5.778;2023-04-15T04:12:15;5.90;99.90
53520;DHT22;39397;53.204;5.778;2023-04-15T04:14:41;4.90;99.90
53520;DHT22;39397;53.204;5.778;2023-04-15T04:17:07;6.30;99.90
53520;DHT22;39397;53.204;5.778;2023-04-15T04:19:33;6.20;99.90
53520;DHT22;39397;53.204;5.778;2023-04-15T04:21:58;5.60;99.90
53520;DHT22;39397;53.204;5.778;2023-04-15T04:24:24;6.20;99.90
53520;DHT22;39397;53.204;5.778;2023-04-15T04:26:50;5.60;99.90
53520;DHT22;39397;53.204;5.778;2023-04-15T04:29:16;5.00;99.90
53520;DHT22;39397;53.204;5.778;2023-04-15T04:31:42;6.00;99.90
53520;DHT22;39397;53.204;5.778;2023-04-15T04:34:08;6.00;99.90
53520;DHT22;39397;53.204;5.778;2023-04-15T04:36:33;4.90;99.90
53520;DHT22;39397;53.204;5.778;2023-04-15T04:38:59;6.10;99.90
53520;DHT22;39397;53.204;5.778;2023-04-15T04:41:26;5.30;99.90
53520;DHT22;39397;53.204;5.778;2023-04-15T04:43:51;5.10;99.90
53520;DHT22;39397;53.204;5.778;2023-04-15T04:46:17;4.90;99.90
53520;DHT22;39397;53.204;5.778;2023-04-15T04:48:43;5.90;99.90
53520;DHT22;39397;53.204;5.778;2023-04-15T04:51:09;5.30;99.90
53520;DHT22;39397;53.204;5.778;2023-04-15T04:53:35;5.70;99.90
53520;DHT22;39397;53.204;5.778;2023-04-15T04:56:02;5.80;99.90
53520;DHT22;39397;53.204;5.778;2023-04-15T04:58:28;4.80;99.90
53520;DHT22;39397;53.204;5.778;2023-04-15T05:00:53;6.50;99.90
53520;DHT22;39397;53.204;5.778;2023-04-15T05:03:20;4.90;99.90
53520;DHT22;39397;53.204;5.778;2023-04-15T05:05:46;5.40;99.90
53520;DHT22;39397;53.204;5.778;2023-04-15T05:08:14;6.00;99.90
53520;DHT22;39397;53.204;5.778;2023-04-15T05:10:39;5.90;99.90
53520;DHT22;39397;53.204;5.778;2023-04-15T05:13:09;5.40;99.90
53520;DHT22;39397;53.204;5.778;2023-04-15T05:15:35;5.70;99.90
53520;DHT22;39397;53.204;5.778;2023-04-15T05:18:04;5.80;99.90
53520;DHT22;39397;53.204;5.778;2023-04-15T05:20:30;5.20;99.90
53520;DHT22;39397;53.204;5.778;2023-04-15T05:22:55;5.80;99.90
53520;DHT22;39397;53.204;5.778;2023-04-15T05:25:21;5.70;99.90
53520;DHT22;39397;53.204;5.778;2023-04-15T05:27:47;5.80;99.90
53520;DHT22;39397;53.204;5.778;2023-04-15T05:30:13;5.70;99.90
53520;DHT22;39397;53.204;5.778;2023-04-15T05:32:38;5.60;99.90
53520;DHT22;39397;53.204;5.778;2023-04-15T05:35:05;5.40;99.90
53520;DHT22;39397;53.204;5.778;2023-04-15T05:37:31;5.50;99.90
53520;DHT22;39397;53.204;5.778;2023-04-15T05:39:56;6.80;99.90
53520;DHT22;39397;53.204;5.778;2023-04-15T05:42:22;5.60;99.90
53520;DHT22;39397;53.204;5.778;2023-04-15T05:44:48;5.60;99.90
53520;DHT22;39397;53.204;5.778;2023-04-15T05:47:13;5.90;99.90
53520;DHT22;39397;53.204;5.778;2023-04-15T05:49:39;6.10;99.90
53520;DHT22;39397;53.204;5.778;2023-04-15T05:52:05;5.80;99.90
53520;DHT22;39397;53.204;5.778;2023-04-15T05:54:31;6.50;99.90
53520;DHT22;39397;53.204;5.778;2023-04-15T05:56:56;5.90;99.90
53520;DHT22;39397;53.204;5.778;2023-04-15T05:59:22;6.00;99.90
53520;DHT22;39397;53.204;5.778;2023-04-15T06:01:48;6.60;99.90
53520;DHT22;39397;53.204;5.778;2023-04-15T06:04:16;6.10;99.90
53520;DHT22;39397;53.204;5.778;2023-04-15T06:06:42;6.30;99.90
53520;DHT22;39397;53.204;5.778;2023-04-15T06:09:08;6.80;99.90
53520;DHT22;39397;53.204;5.778;2023-04-15T06:11:33;6.50;99.90
53520;DHT22;39397;53.204;5.778;2023-04-15T06:13:59;6.60;99.90
53520;DHT22;39397;53.204;5.778;2023-04-15T06:16:25;6.70;99.90
53520;DHT22;39397;53.204;5.778;2023-04-15T06:18:51;6.80;99.90
53520;DHT22;39397;53.204;5.778;2023-04-15T06:21:17;7.10;99.90
53520;DHT22;39397;53.204;5.778;2023-04-15T06:23:43;7.50;99.90
53520;DHT22;39397;53.204;5.778;2023-04-15T06:26:09;8.00;99.90
53520;DHT22;39397;53.204;5.778;2023-04-15T06:28:34;7.50;99.90
53520;DHT22;39397;53.204;5.778;2023-04-15T06:31:00;7.40;99.90
53520;DHT22;39397;53.204;5.778;2023-04-15T06:33:26;8.40;99.90
53520;DHT22;39397;53.204;5.778;2023-04-15T06:35:52;7.90;99.90
53520;DHT22;39397;53.204;5.778;2023-04-15T06:38:18;7.80;99.90
53520;DHT22;39397;53.204;5.778;2023-04-15T06:40:43;8.00;99.90
53520;DHT22;39397;53.204;5.778;2023-04-15T06:43:09;9.10;99.90
53520;DHT22;39397;53.204;5.778;2023-04-15T06:45:35;9.20;99.90
53520;DHT22;39397;53.204;5.778;2023-04-15T06:48:00;8.50;99.90
53520;DHT22;39397;53.204;5.778;2023-04-15T06:50:26;8.40;99.90
53520;DHT22;39397;53.204;5.778;2023-04-15T06:52:55;8.50;99.90
53520;DHT22;39397;53.204;5.778;2023-04-15T06:55:21;8.80;99.90
53520;DHT22;39397;53.204;5.778;2023-04-15T06:57:47;8.70;99.90
53520;DHT22;39397;53.204;5.778;2023-04-15T07:00:13;8.60;99.90
53520;DHT22;39397;53.204;5.778;2023-04-15T07:02:38;8.70;99.90
53520;DHT22;39397;53.204;5.778;2023-04-15T07:05:05;8.60;99.90
53520;DHT22;39397;53.204;5.778;2023-04-15T07:07:31;8.70;99.90
53520;DHT22;39397;53.204;5.778;2023-04-15T07:09:57;8.90;99.90
53520;DHT22;39397;53.204;5.778;2023-04-15T07:12:23;8.90;99.90
53520;DHT22;39397;53.204;5.778;2023-04-15T07:14:49;9.00;99.90
53520;DHT22;39397;53.204;5.778;2023-04-15T07:17:14;9.20;99.90
53520;DHT22;39397;53.204;5.778;2023-04-15T07:19:40;9.10;99.90
53520;DHT22;39397;53.204;5.778;2023-04-15T07:22:06;9.10;99.90
53520;DHT22;39397;53.204;5.778;2023-04-15T07:24:32;9.20;99.90
53520;DHT22;39397;53.204;5.778;2023-04-15T07:26:58;9.40;99.90
53520;DHT22;39397;53.204;5.778;2023-04-15T07:29:24;9.50;99.90
53520;DHT22;39397;53.204;5.778;2023-04-15T07:31:50;9.50;99.90
53520;DHT22;39397;53.204;5.778;2023-04-15T07:34:17;9.70;99.90
53520;DHT22;39397;53.204;5.778;2023-04-15T07:36:44;9.70;99.90
53520;DHT22;39397;53.204;5.778;2023-04-15T07:39:10;10.00;99.90
53520;DHT22;39397;53.204;5.778;2023-04-15T07:41:36;10.10;99.90
53520;DHT22;39397;53.204;5.778;2023-04-15T07:44:02;10.20;99.90
53520;DHT22;39397;53.204;5.778;2023-04-15T07:46:28;10.40;99.90
53520;DHT22;39397;53.204;5.778;2023-04-15T07:48:54;10.50;99.90
53520;DHT22;39397;53.204;5.778;2023-04-15T07:51:20;10.70;99.90
53520;DHT22;39397;53.204;5.778;2023-04-15T07:53:49;10.70;99.90
53520;DHT22;39397;53.204;5.778;2023-04-15T07:56:15;11.00;99.90
53520;DHT22;39397;53.204;5.778;2023-04-15T07:58:40;10.70;99.90
53520;DHT22;39397;53.204;5.778;2023-04-15T08:01:07;10.80;99.90
53520;DHT22;39397;53.204;5.778;2023-04-15T08:03:33;10.80;99.90
53520;DHT22;39397;53.204;5.778;2023-04-15T08:05:59;11.00;99.90
53520;DHT22;39397;53.204;5.778;2023-04-15T08:08:24;11.10;99.90
53520;DHT22;39397;53.204;5.778;2023-04-15T08:10:51;11.10;99.90
53520;DHT22;39397;53.204;5.778;2023-04-15T08:13:17;11.10;99.90
53520;DHT22;39397;53.204;5.778;2023-04-15T08:15:43;11.10;99.90
53520;DHT22;39397;53.204;5.778;2023-04-15T08:18:09;11.00;99.90
53520;DHT22;39397;53.204;5.778;2023-04-15T08:20:35;11.10;99.90
53520;DHT22;39397;53.204;5.778;2023-04-15T08:23:02;11.20;99.90
53520;DHT22;39397;53.204;5.778;2023-04-15T08:25:28;10.90;99.90
53520;DHT22;39397;53.204;5.778;2023-04-15T08:27:57;11.00;99.90
53520;DHT22;39397;53.204;5.778;2023-04-15T08:30:22;11.00;99.90
53520;DHT22;39397;53.204;5.778;2023-04-15T08:32:49;11.00;99.90
53520;DHT22;39397;53.204;5.778;2023-04-15T08:35:15;11.00;99.90
53520;DHT22;39397;53.204;5.778;2023-04-15T08:37:41;11.10;99.90
53520;DHT22;39397;53.204;5.778;2023-04-15T08:40:07;11.00;99.90
53520;DHT22;39397;53.204;5.778;2023-04-15T08:42:42;11.00;99.90
53520;DHT22;39397;53.204;5.778;2023-04-15T08:45:09;11.10;99.90
53520;DHT22;39397;53.204;5.778;2023-04-15T08:47:39;11.30;99.90
53520;DHT22;39397;53.204;5.778;2023-04-15T08:50:08;11.40;99.90
53520;DHT22;39397;53.204;5.778;2023-04-15T08:52:34;11.30;99.90
53520;DHT22;39397;53.204;5.778;2023-04-15T08:55:01;11.30;99.90
53520;DHT22;39397;53.204;5.778;2023-04-15T08:57:28;11.20;99.90
53520;DHT22;39397;53.204;5.778;2023-04-15T08:59:57;11.20;99.90
53520;DHT22;39397;53.204;5.778;2023-04-15T09:02:24;11.20;99.90
53520;DHT22;39397;53.204;5.778;2023-04-15T09:04:52;11.20;99.90
53520;DHT22;39397;53.204;5.778;2023-04-15T09:07:18;11.30;99.90
53520;DHT22;39397;53.204;5.778;2023-04-15T09:09:43;11.10;99.90
53520;DHT22;39397;53.204;5.778;2023-04-15T09:12:10;11.40;99.90
53520;DHT22;39397;53.204;5.778;2023-04-15T09:14:38;11.40;99.90
53520;DHT22;39397;53.204;5.778;2023-04-15T09:17:05;11.30;99.90
53520;DHT22;39397;53.204;5.778;2023-04-15T09:19:34;11.30;99.90
53520;DHT22;39397;53.204;5.778;2023-04-15T09:22:01;11.40;99.90
53520;DHT22;39397;53.204;5.778;2023-04-15T09:24:36;11.30;99.90
53520;DHT22;39397;53.204;5.778;2023-04-15T09:27:02;11.40;99.90
53520;DHT22;39397;53.204;5.778;2023-04-15T09:29:28;11.20;99.90
53520;DHT22;39397;53.204;5.778;2023-04-15T09:31:54;11.40;99.90
53520;DHT22;39397;53.204;5.778;2023-04-15T09:34:20;11.30;99.90
53520;DHT22;39397;53.204;5.778;2023-04-15T09:39:17;11.60;99.90
53520;DHT22;39397;53.204;5.778;2023-04-15T09:41:43;11.70;99.90
53520;DHT22;39397;53.204;5.778;2023-04-15T09:44:25;11.80;99.90
53520;DHT22;39397;53.204;5.778;2023-04-15T09:46:51;11.90;99.90
53520;DHT22;39397;53.204;5.778;2023-04-15T09:49:17;12.00;99.90
53520;DHT22;39397;53.204;5.778;2023-04-15T09:51:43;12.10;99.90
53520;DHT22;39397;53.204;5.778;2023-04-15T09:54:09;12.00;99.90
53520;DHT22;39397;53.204;5.778;2023-04-15T09:56:36;12.00;99.90
53520;DHT22;39397;53.204;5.778;2023-04-15T09:59:06;11.90;99.90
53520;DHT22;39397;53.204;5.778;2023-04-15T10:01:34;12.00;99.90
53520;DHT22;39397;53.204;5.778;2023-04-15T10:04:02;12.10;99.90
53520;DHT22;39397;53.204;5.778;2023-04-15T10:06:29;12.10;99.90
53520;DHT22;39397;53.204;5.778;2023-04-15T10:08:56;12.30;99.90
53520;DHT22;39397;53.204;5.778;2023-04-15T10:11:23;12.50;99.90
53520;DHT22;39397;53.204;5.778;2023-04-15T10:13:50;12.50;99.90
53520;DHT22;39397;53.204;5.778;2023-04-15T10:16:19;12.60;99.90
53520;DHT22;39397;53.204;5.778;2023-04-15T10:18:47;12.50;99.90
53520;DHT22;39397;53.204;5.778;2023-04-15T10:21:14;12.50;99.90
53520;DHT22;39397;53.204;5.778;2023-04-15T10:23:44;12.60;99.90
53520;DHT22;39397;53.204;5.778;2023-04-15T10:26:11;12.60;99.90
53520;DHT22;39397;53.204;5.778;2023-04-15T10:28:37;12.60;99.90
53520;DHT22;39397;53.204;5.778;2023-04-15T10:31:04;12.70;99.90
53520;DHT22;39397;53.204;5.778;2023-04-15T10:33:30;12.50;99.90
53520;DHT22;39397;53.204;5.778;2023-04-15T10:35:56;12.40;99.90
53520;DHT22;39397;53.204;5.778;2023-04-15T10:38:40;12.50;99.90
53520;DHT22;39397;53.204;5.778;2023-04-15T10:41:14;12.50;99.90
53520;DHT22;39397;53.204;5.778;2023-04-15T10:43:56;12.60;99.90
53520;DHT22;39397;53.204;5.778;2023-04-15T10:46:41;12.70;99.90
53520;DHT22;39397;53.204;5.778;2023-04-15T10:49:07;12.90;99.90
53520;DHT22;39397;53.204;5.778;2023-04-15T10:51:38;12.70;99.90
53520;DHT22;39397;53.204;5.778;2023-04-15T10:54:12;12.60;99.90
53520;DHT22;39397;53.204;5.778;2023-04-15T10:56:43;12.50;99.90
53520;DHT22;39397;53.204;5.778;2023-04-15T10:59:10;12.30;99.90
53520;DHT22;39397;53.204;5.778;2023-04-15T11:01:54;12.30;99.90
53520;DHT22;39397;53.204;5.778;2023-04-15T11:04:56;12.20;99.90
53520;DHT22;39397;53.204;5.778;2023-04-15T11:07:53;12.10;99.90
53520;DHT22;39397;53.204;5.778;2023-04-15T11:12:53;11.70;99.90
53520;DHT22;39397;53.204;5.778;2023-04-15T11:15:29;11.80;99.90
53520;DHT22;39397;53.204;5.778;2023-04-15T11:17:56;11.70;99.90
53520;DHT22;39397;53.204;5.778;2023-04-15T11:20:22;11.70;99.90
53520;DHT22;39397;53.204;5.778;2023-04-15T11:22:49;11.80;99.90
53520;DHT22;39397;53.204;5.778;2023-04-15T11:25:27;11.50;99.90
53520;DHT22;39397;53.204;5.778;2023-04-15T11:27:54;11.40;99.90
53520;DHT22;39397;53.204;5.778;2023-04-15T11:30:24;11.50;99.90
53520;DHT22;39397;53.204;5.778;2023-04-15T11:32:52;11.70;99.90
53520;DHT22;39397;53.204;5.778;2023-04-15T11:35:18;11.50;99.90
53520;DHT22;39397;53.204;5.778;2023-04-15T11:37:45;11.40;99.90
53520;DHT22;39397;53.204;5.778;2023-04-15T11:40:11;11.80;99.90
53520;DHT22;39397;53.204;5.778;2023-04-15T11:42:38;11.40;99.90
53520;DHT22;39397;53.204;5.778;2023-04-15T11:45:07;11.30;99.90
53520;DHT22;39397;53.204;5.778;2023-04-15T11:47:35;11.30;99.90
53520;DHT22;39397;53.204;5.778;2023-04-15T11:50:18;11.30;99.90
53520;DHT22;39397;53.204;5.778;2023-04-15T11:55:19;11.20;99.90
53520;DHT22;39397;53.204;5.778;2023-04-15T11:57:44;11.30;99.90
53520;DHT22;39397;53.204;5.778;2023-04-15T12:00:11;11.20;99.90
53520;DHT22;39397;53.204;5.778;2023-04-15T12:02:38;11.20;99.90
53520;DHT22;39397;53.204;5.778;2023-04-15T12:05:05;11.30;99.90
53520;DHT22;39397;53.204;5.778;2023-04-15T12:07:31;11.20;99.90
53520;DHT22;39397;53.204;5.778;2023-04-15T12:09:57;11.10;99.90
53520;DHT22;39397;53.204;5.778;2023-04-15T12:12:27;11.20;99.90
53520;DHT22;39397;53.204;5.778;2023-04-15T12:14:55;11.10;99.90
53520;DHT22;39397;53.204;5.778;2023-04-15T12:17:22;11.10;99.90
53520;DHT22;39397;53.204;5.778;2023-04-15T12:19:54;11.00;99.90
53520;DHT22;39397;53.204;5.778;2023-04-15T12:22:20;11.00;99.90
53520;DHT22;39397;53.204;5.778;2023-04-15T12:24:46;10.90;99.90
53520;DHT22;39397;53.204;5.778;2023-04-15T12:27:15;10.80;99.90
53520;DHT22;39397;53.204;5.778;2023-04-15T12:29:41;10.80;99.90
53520;DHT22;39397;53.204;5.778;2023-04-15T12:32:15;10.70;99.90
53520;DHT22;39397;53.204;5.778;2023-04-15T12:34:49;10.80;99.90
53520;DHT22;39397;53.204;5.778;2023-04-15T12:37:15;10.60;99.90
53520;DHT22;39397;53.204;5.778;2023-04-15T12:39:43;10.80;99.90
53520;DHT22;39397;53.204;5.778;2023-04-15T12:42:10;10.50;99.90
53520;DHT22;39397;53.204;5.778;2023-04-15T12:44:36;10.50;99.90
53520;DHT22;39397;53.204;5.778;2023-04-15T12:47:03;10.60;99.90
53520;DHT22;39397;53.204;5.778;2023-04-15T12:49:29;11.60;99.90
53520;DHT22;39397;53.204;5.778;2023-04-15T12:51:56;10.30;99.90
53520;DHT22;39397;53.204;5.778;2023-04-15T12:54:23;10.20;99.90
53520;DHT22;39397;53.204;5.778;2023-04-15T12:56:51;10.10;99.90
53520;DHT22;39397;53.204;5.778;2023-04-15T12:59:17;10.30;99.90
53520;DHT22;39397;53.204;5.778;2023-04-15T13:01:43;10.10;99.90
53520;DHT22;39397;53.204;5.778;2023-04-15T13:04:10;10.10;99.90
53520;DHT22;39397;53.204;5.778;2023-04-15T13:06:35;10.00;99.90
53520;DHT22;39397;53.204;5.778;2023-04-15T13:09:03;10.00;99.90
53520;DHT22;39397;53.204;5.778;2023-04-15T13:11:29;10.00;99.90
53520;DHT22;39397;53.204;5.778;2023-04-15T13:14:06;10.00;99.90
53520;DHT22;39397;53.204;5.778;2023-04-15T13:16:33;9.90;99.90
53520;DHT22;39397;53.204;5.778;2023-04-15T13:18:59;9.90;99.90
53520;DHT22;39397;53.204;5.778;2023-04-15T13:21:26;9.80;99.90
53520;DHT22;39397;53.204;5.778;2023-04-15T13:23:52;9.90;99.90
53520;DHT22;39397;53.204;5.778;2023-04-15T13:26:18;10.00;99.90
53520;DHT22;39397;53.204;5.778;2023-04-15T13:28:44;9.90;99.90
53520;DHT22;39397;53.204;5.778;2023-04-15T13:31:11;9.70;99.90
53520;DHT22;39397;53.204;5.778;2023-04-15T13:33:36;9.80;99.90
53520;DHT22;39397;53.204;5.778;2023-04-15T13:36:02;10.30;99.90
53520;DHT22;39397;53.204;5.778;2023-04-15T13:38:28;9.80;99.90
53520;DHT22;39397;53.204;5.778;2023-04-15T13:40:54;9.80;99.90
53520;DHT22;39397;53.204;5.778;2023-04-15T13:43:19;9.80;99.90
53520;DHT22;39397;53.204;5.778;2023-04-15T13:45:46;9.80;99.90
53520;DHT22;39397;53.204;5.778;2023-04-15T13:48:12;9.70;99.90
53520;DHT22;39397;53.204;5.778;2023-04-15T13:50:37;10.40;99.90
53520;DHT22;39397;53.204;5.778;2023-04-15T13:53:03;10.00;99.90
53520;DHT22;39397;53.204;5.778;2023-04-15T13:55:29;9.80;99.90
53520;DHT22;39397;53.204;5.778;2023-04-15T13:57:55;9.90;99.90
53520;DHT22;39397;53.204;5.778;2023-04-15T14:00:21;9.80;99.90
53520;DHT22;39397;53.204;5.778;2023-04-15T14:02:47;10.00;99.90
53520;DHT22;39397;53.204;5.778;2023-04-15T14:05:13;10.30;99.90
53520;DHT22;39397;53.204;5.778;2023-04-15T14:07:39;9.70;99.90
53520;DHT22;39397;53.204;5.778;2023-04-15T14:10:05;9.50;99.90
53520;DHT22;39397;53.204;5.778;2023-04-15T14:12:32;9.50;99.90
53520;DHT22;39397;53.204;5.778;2023-04-15T14:14:57;9.70;99.90
53520;DHT22;39397;53.204;5.778;2023-04-15T14:17:23;9.80;99.90
53520;DHT22;39397;53.204;5.778;2023-04-15T14:19:49;9.80;99.90
53520;DHT22;39397;53.204;5.778;2023-04-15T14:22:14;9.80;99.90
53520;DHT22;39397;53.204;5.778;2023-04-15T14:24:40;9.90;99.90
53520;DHT22;39397;53.204;5.778;2023-04-15T14:27:06;9.70;99.90
53520;DHT22;39397;53.204;5.778;2023-04-15T14:29:33;10.50;99.90
53520;DHT22;39397;53.204;5.778;2023-04-15T14:31:59;10.00;99.90
53520;DHT22;39397;53.204;5.778;2023-04-15T14:34:25;9.90;99.90
53520;DHT22;39397;53.204;5.778;2023-04-15T14:36:51;9.90;99.90
53520;DHT22;39397;53.204;5.778;2023-04-15T14:39:20;10.00;99.90
53520;DHT22;39397;53.204;5.778;2023-04-15T14:41:46;9.90;99.90
53520;DHT22;39397;53.204;5.778;2023-04-15T14:44:12;9.80;99.90
53520;DHT22;39397;53.204;5.778;2023-04-15T14:46:38;9.80;99.90
53520;DHT22;39397;53.204;5.778;2023-04-15T14:49:05;9.90;99.90
53520;DHT22;39397;53.204;5.778;2023-04-15T14:51:31;11.10;99.90
53520;DHT22;39397;53.204;5.778;2023-04-15T14:53:57;9.90;99.90
53520;DHT22;39397;53.204;5.778;2023-04-15T14:56:22;9.90;99.90
53520;DHT22;39397;53.204;5.778;2023-04-15T14:58:48;9.80;99.90
53520;DHT22;39397;53.204;5.778;2023-04-15T15:01:14;10.00;99.90
53520;DHT22;39397;53.204;5.778;2023-04-15T15:03:40;10.30;99.90
53520;DHT22;39397;53.204;5.778;2023-04-15T15:06:06;9.70;99.90
53520;DHT22;39397;53.204;5.778;2023-04-15T15:08:32;9.80;99.90
53520;DHT22;39397;53.204;5.778;2023-04-15T15:10:57;9.60;99.90
53520;DHT22;39397;53.204;5.778;2023-04-15T15:13:23;9.70;99.90
53520;DHT22;39397;53.204;5.778;2023-04-15T15:15:50;9.70;99.90
53520;DHT22;39397;53.204;5.778;2023-04-15T15:18:16;9.70;99.90
53520;DHT22;39397;53.204;5.778;2023-04-15T15:20:43;9.50;99.90
53520;DHT22;39397;53.204;5.778;2023-04-15T15:23:09;9.50;99.90
53520;DHT22;39397;53.204;5.778;2023-04-15T15:25:35;9.70;99.90
53520;DHT22;39397;53.204;5.778;2023-04-15T15:28:03;9.80;99.90
53520;DHT22;39397;53.204;5.778;2023-04-15T15:30:30;9.70;99.90
53520;DHT22;39397;53.204;5.778;2023-04-15T15:32:55;9.60;99.90
53520;DHT22;39397;53.204;5.778;2023-04-15T15:35:21;9.70;99.90
53520;DHT22;39397;53.204;5.778;2023-04-15T15:37:47;9.70;99.90
53520;DHT22;39397;53.204;5.778;2023-04-15T15:40:13;9.70;99.90
53520;DHT22;39397;53.204;5.778;2023-04-15T15:42:38;10.40;99.90
53520;DHT22;39397;53.204;5.778;2023-04-15T15:45:04;9.70;99.90